sensor_id;sensor_type;location;lat;lon;timestamp;P1;durP1;ratioP1;P2;durP2;ratioP2
8490;SDS011;4282;49.986;7.938;2023-05-10T00:02:00;1.83;;;0.30;;
8490;SDS011;4282;49.986;7.938;2023-05-10T00:04:28;0.80;;;0.40;;
8490;SDS011;4282;49.986;7.938;2023-05-10T00:06:56;0.17;;;0.17;;
8490;SDS011;4282;49.986;7.938;2023-05-10T00:09:27;1.40;;;0.70;;
8490;SDS011;4282;49.986;7.938;2023-05-10T00:11:55;0.37;;;0.20;;
8490;SDS011;4282;49.986;7.938;2023-05-10T00:14:24;0.20;;;0.10;;
8490;SDS011;4282;49.986;7.938;2023-05-10T00:16:52;1.40;;;0.30;;
8490;SDS011;4282;49.986;7.938;2023-05-10T00:19:20;1.20;;;0.30;;
8490;SDS011;4282;49.986;7.938;2023-05-10T00:21:48;0.40;;;0.20;;
8490;SDS011;4282;49.986;7.938;2023-05-10T00:24:17;1.40;;;0.40;;
8490;SDS011;4282;49.986;7.938;2023-05-10T00:26:47;0.27;;;0.20;;
8490;SDS011;4282;49.986;7.938;2023-05-10T00:29:16;0.33;;;0.27;;
8490;SDS011;4282;49.986;7.938;2023-05-10T00:31:44;0.30;;;0.30;;
8490;SDS011;4282;49.986;7.938;2023-05-10T00:34:12;0.40;;;0.33;;
8490;SDS011;4282;49.986;7.938;2023-05-10T00:36:41;0.20;;;0.20;;
8490;SDS011;4282;49.986;7.938;2023-05-10T00:39:09;0.63;;;0.27;;
8490;SDS011;4282;49.986;7.938;2023-05-10T00:41:37;0.83;;;0.27;;
8490;SDS011;4282;49.986;7.938;2023-05-10T00:44:08;0.50;;;0.50;;
8490;SDS011;4282;49.986;7.938;2023-05-10T00:46:36;3.13;;;0.40;;
8490;SDS011;4282;49.986;7.938;2023-05-10T00:49:05;0.30;;;0.30;;
8490;SDS011;4282;49.986;7.938;2023-05-10T00:51:33;1.33;;;0.20;;
8490;SDS011;4282;49.986;7.938;2023-05-10T00:54:01;1.13;;;0.30;;
8490;SDS011;4282;49.986;7.938;2023-05-10T00:56:30;1.07;;;0.20;;
8490;SDS011;4282;49.986;7.938;2023-05-10T00:58:59;1.63;;;0.30;;
8490;SDS011;4282;49.986;7.938;2023-05-10T01:01:30;1.17;;;0.50;;
8490;SDS011;4282;49.986;7.938;2023-05-10T01:03:58;0.67;;;0.30;;
8490;SDS011;4282;49.986;7.938;2023-05-10T01:06:26;0.40;;;0.33;;
8490;SDS011;4282;49.986;7.938;2023-05-10T01:08:55;0.50;;;0.40;;
8490;SDS011;4282;49.986;7.938;2023-05-10T01:11:23;0.87;;;0.20;;
8490;SDS011;4282;49.986;7.938;2023-05-10T01:13:52;2.53;;;0.40;;
8490;SDS011;4282;49.986;7.938;2023-05-10T01:16:23;0.43;;;0.43;;
8490;SDS011;4282;49.986;7.938;2023-05-10T01:18:54;1.43;;;0.33;;
8490;SDS011;4282;49.986;7.938;2023-05-10T01:21:23;0.60;;;0.30;;
8490;SDS011;4282;49.986;7.938;2023-05-10T01:24:10;1.30;;;0.50;;
8490;SDS011;4282;49.986;7.938;2023-05-10T01:26:59;0.63;;;0.40;;
8490;SDS011;4282;49.986;7.938;2023-05-10T01:29:47;0.37;;;0.27;;
8490;SDS011;4282;49.986;7.938;2023-05-10T01:32:32;0.60;;;0.30;;
8490;SDS011;4282;49.986;7.938;2023-05-10T01:35:05;0.70;;;0.30;;
8490;SDS011;4282;49.986;7.938;2023-05-10T01:37:38;0.43;;;0.30;;
8490;SDS011;4282;49.986;7.938;2023-05-10T01:40:10;0.40;;;0.20;;
8490;SDS011;4282;49.986;7.938;2023-05-10T01:42:48;1.70;;;0.30;;
8490;SDS011;4282;49.986;7.938;2023-05-10T01:45:20;1.17;;;0.40;;
8490;SDS011;4282;49.986;7.938;2023-05-10T01:47:57;0.70;;;0.30;;
8490;SDS011;4282;49.986;7.938;2023-05-10T01:50:30;0.73;;;0.50;;
8490;SDS011;4282;49.986;7.938;2023-05-10T01:52:59;1.90;;;0.50;;
8490;SDS011;4282;49.986;7.938;2023-05-10T01:55:29;1.33;;;0.63;;
8490;SDS011;4282;49.986;7.938;2023-05-10T01:58:00;0.50;;;0.50;;
8490;SDS011;4282;49.986;7.938;2023-05-10T02:00:30;1.77;;;0.40;;
8490;SDS011;4282;49.986;7.938;2023-05-10T02:03:03;0.80;;;0.47;;
8490;SDS011;4282;49.986;7.938;2023-05-10T02:05:33;2.10;;;1.03;;
8490;SDS011;4282;49.986;7.938;2023-05-10T02:08:02;0.60;;;0.50;;
8490;SDS011;4282;49.986;7.938;2023-05-10T02:10:34;0.60;;;0.43;;
8490;SDS011;4282;49.986;7.938;2023-05-10T02:13:03;1.03;;;0.60;;
8490;SDS011;4282;49.986;7.938;2023-05-10T02:15:31;3.67;;;0.70;;
8490;SDS011;4282;49.986;7.938;2023-05-10T02:18:03;0.87;;;0.53;;
8490;SDS011;4282;49.986;7.938;2023-05-10T02:20:32;1.57;;;0.53;;
8490;SDS011;4282;49.986;7.938;2023-05-10T02:23:01;1.60;;;0.50;;
8490;SDS011;4282;49.986;7.938;2023-05-10T02:25:30;3.87;;;0.60;;
8490;SDS011;4282;49.986;7.938;2023-05-10T02:28:00;0.40;;;0.40;;
8490;SDS011;4282;49.986;7.938;2023-05-10T02:30:30;4.13;;;0.60;;
8490;SDS011;4282;49.986;7.938;2023-05-10T02:32:59;1.77;;;0.70;;
8490;SDS011;4282;49.986;7.938;2023-05-10T02:35:30;0.60;;;0.50;;
8490;SDS011;4282;49.986;7.938;2023-05-10T02:38:00;0.70;;;0.53;;
8490;SDS011;4282;49.986;7.938;2023-05-10T02:40:28;1.00;;;0.50;;
8490;SDS011;4282;49.986;7.938;2023-05-10T02:42:57;2.90;;;0.63;;
8490;SDS011;4282;49.986;7.938;2023-05-10T02:45:27;0.70;;;0.60;;
8490;SDS011;4282;49.986;7.938;2023-05-10T02:47:58;1.40;;;0.90;;
8490;SDS011;4282;49.986;7.938;2023-05-10T02:50:27;1.30;;;0.70;;
8490;SDS011;4282;49.986;7.938;2023-05-10T02:52:59;1.27;;;0.83;;
8490;SDS011;4282;49.986;7.938;2023-05-10T02:55:31;3.33;;;0.90;;
8490;SDS011;4282;49.986;7.938;2023-05-10T02:58:01;1.20;;;0.80;;
8490;SDS011;4282;49.986;7.938;2023-05-10T03:00:30;2.53;;;0.80;;
8490;SDS011;4282;49.986;7.938;2023-05-10T03:02:59;1.97;;;0.93;;
8490;SDS011;4282;49.986;7.938;2023-05-10T03:05:29;1.13;;;0.90;;
8490;SDS011;4282;49.986;7.938;2023-05-10T03:07:58;1.57;;;0.97;;
8490;SDS011;4282;49.986;7.938;2023-05-10T03:10:29;2.23;;;1.17;;
8490;SDS011;4282;49.986;7.938;2023-05-10T03:13:02;0.93;;;0.80;;
8490;SDS011;4282;49.986;7.938;2023-05-10T03:15:37;3.10;;;0.90;;
8490;SDS011;4282;49.986;7.938;2023-05-10T03:18:11;2.20;;;0.90;;
8490;SDS011;4282;49.986;7.938;2023-05-10T03:20:49;2.73;;;1.13;;
8490;SDS011;4282;49.986;7.938;2023-05-10T03:23:21;1.17;;;0.80;;
8490;SDS011;4282;49.986;7.938;2023-05-10T03:25:52;3.90;;;0.90;;
8490;SDS011;4282;49.986;7.938;2023-05-10T03:28:20;2.50;;;1.07;;
8490;SDS011;4282;49.986;7.938;2023-05-10T03:30:49;2.23;;;1.23;;
8490;SDS011;4282;49.986;7.938;2023-05-10T03:33:17;1.00;;;0.90;;
8490;SDS011;4282;49.986;7.938;2023-05-10T03:35:48;1.63;;;1.10;;
8490;SDS011;4282;49.986;7.938;2023-05-10T03:38:16;1.20;;;1.10;;
8490;SDS011;4282;49.986;7.938;2023-05-10T03:40:45;2.27;;;1.17;;
8490;SDS011;4282;49.986;7.938;2023-05-10T03:43:13;1.27;;;1.03;;
8490;SDS011;4282;49.986;7.938;2023-05-10T03:45:41;2.03;;;0.97;;
8490;SDS011;4282;49.986;7.938;2023-05-10T03:48:10;1.47;;;1.37;;
8490;SDS011;4282;49.986;7.938;2023-05-10T03:50:38;2.37;;;1.17;;
8490;SDS011;4282;49.986;7.938;2023-05-10T03:53:10;3.30;;;1.30;;
8490;SDS011;4282;49.986;7.938;2023-05-10T03:55:38;2.00;;;1.13;;
8490;SDS011;4282;49.986;7.938;2023-05-10T03:58:06;7.90;;;5.87;;
8490;SDS011;4282;49.986;7.938;2023-05-10T04:00:35;3.33;;;1.63;;
8490;SDS011;4282;49.986;7.938;2023-05-10T04:03:08;1.90;;;1.10;;
8490;SDS011;4282;49.986;7.938;2023-05-10T04:05:37;2.07;;;1.10;;
8490;SDS011;4282;49.986;7.938;2023-05-10T04:08:05;2.67;;;1.10;;
8490;SDS011;4282;49.986;7.938;2023-05-10T04:10:36;1.07;;;0.97;;
8490;SDS011;4282;49.986;7.938;2023-05-10T04:13:04;2.33;;;1.10;;
8490;SDS011;4282;49.986;7.938;2023-05-10T04:15:33;2.50;;;1.10;;
8490;SDS011;4282;49.986;7.938;2023-05-10T04:18:01;2.23;;;1.20;;
8490;SDS011;4282;49.986;7.938;2023-05-10T04:20:29;2.20;;;1.20;;
8490;SDS011;4282;49.986;7.938;2023-05-10T04:23:00;2.03;;;1.10;;
8490;SDS011;4282;49.986;7.938;2023-05-10T04:25:28;3.23;;;1.47;;
8490;SDS011;4282;49.986;7.938;2023-05-10T04:27:59;2.47;;;1.50;;
8490;SDS011;4282;49.986;7.938;2023-05-10T04:30:27;2.57;;;1.47;;
8490;SDS011;4282;49.986;7.938;2023-05-10T04:32:55;2.80;;;1.40;;
8490;SDS011;4282;49.986;7.938;2023-05-10T04:35:24;2.37;;;1.17;;
8490;SDS011;4282;49.986;7.938;2023-05-10T04:37:52;2.07;;;1.80;;
8490;SDS011;4282;49.986;7.938;2023-05-10T04:40:20;2.93;;;1.70;;
8490;SDS011;4282;49.986;7.938;2023-05-10T04:42:48;3.83;;;1.47;;
8490;SDS011;4282;49.986;7.938;2023-05-10T04:45:19;2.77;;;1.33;;
8490;SDS011;4282;49.986;7.938;2023-05-10T04:47:48;3.60;;;1.90;;
8490;SDS011;4282;49.986;7.938;2023-05-10T04:50:16;2.30;;;1.87;;
8490;SDS011;4282;49.986;7.938;2023-05-10T04:52:44;4.87;;;1.50;;
8490;SDS011;4282;49.986;7.938;2023-05-10T04:55:13;3.80;;;1.90;;
8490;SDS011;4282;49.986;7.938;2023-05-10T04:57:41;2.40;;;1.90;;
8490;SDS011;4282;49.986;7.938;2023-05-10T05:00:10;2.77;;;2.10;;
8490;SDS011;4282;49.986;7.938;2023-05-10T05:02:44;2.83;;;1.60;;
8490;SDS011;4282;49.986;7.938;2023-05-10T05:05:13;4.13;;;1.93;;
8490;SDS011;4282;49.986;7.938;2023-05-10T05:07:41;4.83;;;2.33;;
8490;SDS011;4282;49.986;7.938;2023-05-10T05:10:09;3.23;;;1.97;;
8490;SDS011;4282;49.986;7.938;2023-05-10T05:12:37;2.43;;;1.70;;
8490;SDS011;4282;49.986;7.938;2023-05-10T05:15:06;6.50;;;2.33;;
8490;SDS011;4282;49.986;7.938;2023-05-10T05:17:35;2.03;;;1.73;;
8490;SDS011;4282;49.986;7.938;2023-05-10T05:20:07;4.40;;;2.03;;
8490;SDS011;4282;49.986;7.938;2023-05-10T05:22:36;2.30;;;2.10;;
8490;SDS011;4282;49.986;7.938;2023-05-10T05:25:05;3.27;;;2.03;;
8490;SDS011;4282;49.986;7.938;2023-05-10T05:27:34;6.70;;;2.40;;
8490;SDS011;4282;49.986;7.938;2023-05-10T05:30:02;3.80;;;2.30;;
8490;SDS011;4282;49.986;7.938;2023-05-10T05:32:31;2.37;;;2.17;;
8490;SDS011;4282;49.986;7.938;2023-05-10T05:35:00;5.87;;;2.33;;
8490;SDS011;4282;49.986;7.938;2023-05-10T05:37:30;3.60;;;2.00;;
8490;SDS011;4282;49.986;7.938;2023-05-10T05:39:59;3.63;;;2.00;;
8490;SDS011;4282;49.986;7.938;2023-05-10T05:42:27;3.90;;;2.20;;
8490;SDS011;4282;49.986;7.938;2023-05-10T05:44:55;2.43;;;2.23;;
8490;SDS011;4282;49.986;7.938;2023-05-10T05:47:24;3.23;;;2.13;;
8490;SDS011;4282;49.986;7.938;2023-05-10T05:49:52;3.67;;;1.80;;
8490;SDS011;4282;49.986;7.938;2023-05-10T05:52:20;3.50;;;2.00;;
8490;SDS011;4282;49.986;7.938;2023-05-10T05:54:51;2.10;;;1.90;;
8490;SDS011;4282;49.986;7.938;2023-05-10T05:57:19;4.57;;;2.10;;
8490;SDS011;4282;49.986;7.938;2023-05-10T05:59:48;3.43;;;2.07;;
8490;SDS011;4282;49.986;7.938;2023-05-10T06:02:16;5.00;;;2.27;;
8490;SDS011;4282;49.986;7.938;2023-05-10T06:04:44;3.73;;;1.90;;
8490;SDS011;4282;49.986;7.938;2023-05-10T06:07:12;4.60;;;2.20;;
8490;SDS011;4282;49.986;7.938;2023-05-10T06:09:41;4.70;;;2.20;;
8490;SDS011;4282;49.986;7.938;2023-05-10T06:12:11;3.03;;;1.97;;
8490;SDS011;4282;49.986;7.938;2023-05-10T06:14:40;4.47;;;1.87;;
8490;SDS011;4282;49.986;7.938;2023-05-10T06:17:08;3.10;;;1.93;;
8490;SDS011;4282;49.986;7.938;2023-05-10T06:19:36;2.27;;;1.90;;
8490;SDS011;4282;49.986;7.938;2023-05-10T06:22:04;3.07;;;1.70;;
8490;SDS011;4282;49.986;7.938;2023-05-10T06:24:33;3.33;;;1.90;;
8490;SDS011;4282;49.986;7.938;2023-05-10T06:27:01;2.77;;;1.40;;
8490;SDS011;4282;49.986;7.938;2023-05-10T06:29:32;2.07;;;1.40;;
8490;SDS011;4282;49.986;7.938;2023-05-10T06:32:00;4.47;;;1.67;;
8490;SDS011;4282;49.986;7.938;2023-05-10T06:34:28;2.27;;;1.80;;
8490;SDS011;4282;49.986;7.938;2023-05-10T06:36:57;2.53;;;1.40;;
8490;SDS011;4282;49.986;7.938;2023-05-10T06:39:25;3.10;;;1.93;;
8490;SDS011;4282;49.986;7.938;2023-05-10T06:41:54;2.97;;;1.60;;
8490;SDS011;4282;49.986;7.938;2023-05-10T06:44:22;4.87;;;2.13;;
8490;SDS011;4282;49.986;7.938;2023-05-10T06:46:53;3.10;;;1.60;;
8490;SDS011;4282;49.986;7.938;2023-05-10T06:49:21;3.97;;;1.83;;
8490;SDS011;4282;49.986;7.938;2023-05-10T06:51:49;4.17;;;1.87;;
8490;SDS011;4282;49.986;7.938;2023-05-10T06:54:18;1.70;;;1.30;;
8490;SDS011;4282;49.986;7.938;2023-05-10T06:56:46;4.53;;;1.60;;
8490;SDS011;4282;49.986;7.938;2023-05-10T06:59:15;3.90;;;1.27;;
8490;SDS011;4282;49.986;7.938;2023-05-10T07:01:44;2.05;;;1.48;;
8490;SDS011;4282;49.986;7.938;2023-05-10T07:04:15;1.50;;;1.40;;
8490;SDS011;4282;49.986;7.938;2023-05-10T07:06:43;5.25;;;1.40;;
8490;SDS011;4282;49.986;7.938;2023-05-10T07:09:12;1.50;;;1.27;;
8490;SDS011;4282;49.986;7.938;2023-05-10T07:11:40;4.50;;;1.60;;
8490;SDS011;4282;49.986;7.938;2023-05-10T07:14:09;1.83;;;1.30;;
8490;SDS011;4282;49.986;7.938;2023-05-10T07:16:37;3.67;;;1.67;;
8490;SDS011;4282;49.986;7.938;2023-05-10T07:19:05;3.53;;;1.60;;
8490;SDS011;4282;49.986;7.938;2023-05-10T07:21:36;1.93;;;1.47;;
8490;SDS011;4282;49.986;7.938;2023-05-10T07:24:05;4.43;;;1.60;;
8490;SDS011;4282;49.986;7.938;2023-05-10T07:26:34;3.43;;;1.63;;
8490;SDS011;4282;49.986;7.938;2023-05-10T07:29:02;3.23;;;1.40;;
8490;SDS011;4282;49.986;7.938;2023-05-10T07:31:30;2.23;;;1.47;;
8490;SDS011;4282;49.986;7.938;2023-05-10T07:33:58;3.30;;;1.60;;
8490;SDS011;4282;49.986;7.938;2023-05-10T07:36:27;4.15;;;1.52;;
8490;SDS011;4282;49.986;7.938;2023-05-10T07:38:58;2.30;;;1.20;;
8490;SDS011;4282;49.986;7.938;2023-05-10T07:41:27;3.17;;;1.43;;
8490;SDS011;4282;49.986;7.938;2023-05-10T07:43:55;3.27;;;1.30;;
8490;SDS011;4282;49.986;7.938;2023-05-10T07:46:23;3.07;;;1.60;;
8490;SDS011;4282;49.986;7.938;2023-05-10T07:48:52;2.17;;;1.70;;
8490;SDS011;4282;49.986;7.938;2023-05-10T07:51:20;3.37;;;1.73;;
8490;SDS011;4282;49.986;7.938;2023-05-10T07:53:48;2.83;;;1.57;;
8490;SDS011;4282;49.986;7.938;2023-05-10T07:56:23;2.90;;;1.30;;
8490;SDS011;4282;49.986;7.938;2023-05-10T07:58:54;2.80;;;1.77;;
8490;SDS011;4282;49.986;7.938;2023-05-10T08:01:23;2.80;;;1.30;;
8490;SDS011;4282;49.986;7.938;2023-05-10T08:03:52;2.93;;;1.20;;
8490;SDS011;4282;49.986;7.938;2023-05-10T08:06:20;2.93;;;1.10;;
8490;SDS011;4282;49.986;7.938;2023-05-10T08:08:50;1.10;;;0.83;;
8490;SDS011;4282;49.986;7.938;2023-05-10T08:11:19;1.13;;;0.60;;
8490;SDS011;4282;49.986;7.938;2023-05-10T08:13:50;2.03;;;0.60;;
8490;SDS011;4282;49.986;7.938;2023-05-10T08:16:18;1.47;;;0.70;;
8490;SDS011;4282;49.986;7.938;2023-05-10T08:18:47;1.63;;;0.60;;
8490;SDS011;4282;49.986;7.938;2023-05-10T08:21:15;1.23;;;0.63;;
8490;SDS011;4282;49.986;7.938;2023-05-10T08:23:44;1.73;;;1.07;;
8490;SDS011;4282;49.986;7.938;2023-05-10T08:26:12;1.10;;;0.77;;
8490;SDS011;4282;49.986;7.938;2023-05-10T08:28:40;1.37;;;0.77;;
8490;SDS011;4282;49.986;7.938;2023-05-10T08:31:11;0.83;;;0.57;;
8490;SDS011;4282;49.986;7.938;2023-05-10T08:33:39;1.33;;;0.97;;
8490;SDS011;4282;49.986;7.938;2023-05-10T08:36:08;2.37;;;0.80;;
8490;SDS011;4282;49.986;7.938;2023-05-10T08:38:39;1.07;;;0.70;;
8490;SDS011;4282;49.986;7.938;2023-05-10T08:41:07;1.33;;;0.80;;
8490;SDS011;4282;49.986;7.938;2023-05-10T08:43:35;1.30;;;0.60;;
8490;SDS011;4282;49.986;7.938;2023-05-10T08:46:06;1.47;;;0.70;;
8490;SDS011;4282;49.986;7.938;2023-05-10T08:48:38;3.43;;;0.97;;
8490;SDS011;4282;49.986;7.938;2023-05-10T08:51:06;2.93;;;1.53;;
8490;SDS011;4282;49.986;7.938;2023-05-10T08:53:35;1.57;;;0.90;;
8490;SDS011;4282;49.986;7.938;2023-05-10T08:56:05;2.13;;;0.87;;
8490;SDS011;4282;49.986;7.938;2023-05-10T08:58:33;0.93;;;0.40;;
8490;SDS011;4282;49.986;7.938;2023-05-10T09:01:02;0.70;;;0.50;;
8490;SDS011;4282;49.986;7.938;2023-05-10T09:03:31;1.00;;;0.80;;
8490;SDS011;4282;49.986;7.938;2023-05-10T09:06:02;2.83;;;0.77;;
8490;SDS011;4282;49.986;7.938;2023-05-10T09:08:31;1.37;;;0.90;;
8490;SDS011;4282;49.986;7.938;2023-05-10T09:11:00;2.53;;;0.93;;
8490;SDS011;4282;49.986;7.938;2023-05-10T09:13:29;3.73;;;0.70;;
8490;SDS011;4282;49.986;7.938;2023-05-10T09:15:57;1.30;;;1.00;;
8490;SDS011;4282;49.986;7.938;2023-05-10T09:18:26;2.87;;;1.30;;
8490;SDS011;4282;49.986;7.938;2023-05-10T09:20:54;0.20;;;0.20;;
8490;SDS011;4282;49.986;7.938;2023-05-10T09:23:25;0.87;;;0.60;;
8490;SDS011;4282;49.986;7.938;2023-05-10T09:26:03;0.63;;;0.50;;
8490;SDS011;4282;49.986;7.938;2023-05-10T09:28:32;0.87;;;0.30;;
8490;SDS011;4282;49.986;7.938;2023-05-10T09:31:00;0.50;;;0.47;;
8490;SDS011;4282;49.986;7.938;2023-05-10T09:33:28;1.43;;;0.30;;
8490;SDS011;4282;49.986;7.938;2023-05-10T09:36:05;0.70;;;0.60;;
8490;SDS011;4282;49.986;7.938;2023-05-10T09:38:47;1.23;;;0.30;;
8490;SDS011;4282;49.986;7.938;2023-05-10T09:41:17;0.30;;;0.30;;
8490;SDS011;4282;49.986;7.938;2023-05-10T09:43:46;0.77;;;0.50;;
8490;SDS011;4282;49.986;7.938;2023-05-10T09:46:14;2.27;;;0.40;;
8490;SDS011;4282;49.986;7.938;2023-05-10T09:48:43;0.30;;;0.30;;
8490;SDS011;4282;49.986;7.938;2023-05-10T09:51:18;0.50;;;0.50;;
8490;SDS011;4282;49.986;7.938;2023-05-10T09:53:49;1.20;;;0.40;;
8490;SDS011;4282;49.986;7.938;2023-05-10T09:56:36;0.67;;;0.30;;
8490;SDS011;4282;49.986;7.938;2023-05-10T09:59:06;0.30;;;0.30;;
8490;SDS011;4282;49.986;7.938;2023-05-10T10:01:35;0.37;;;0.37;;
8490;SDS011;4282;49.986;7.938;2023-05-10T10:04:03;1.40;;;0.30;;
8490;SDS011;4282;49.986;7.938;2023-05-10T10:06:36;0.40;;;0.40;;
8490;SDS011;4282;49.986;7.938;2023-05-10T10:09:07;3.67;;;0.60;;
8490;SDS011;4282;49.986;7.938;2023-05-10T10:11:37;2.83;;;0.50;;
8490;SDS011;4282;49.986;7.938;2023-05-10T10:14:06;1.30;;;0.50;;
8490;SDS011;4282;49.986;7.938;2023-05-10T10:16:34;0.97;;;0.80;;
8490;SDS011;4282;49.986;7.938;2023-05-10T10:19:02;1.27;;;0.40;;
8490;SDS011;4282;49.986;7.938;2023-05-10T10:21:31;3.23;;;0.70;;
8490;SDS011;4282;49.986;7.938;2023-05-10T10:23:59;1.00;;;0.57;;
8490;SDS011;4282;49.986;7.938;2023-05-10T10:26:32;0.98;;;0.73;;
8490;SDS011;4282;49.986;7.938;2023-05-10T10:29:04;1.50;;;0.67;;
8490;SDS011;4282;49.986;7.938;2023-05-10T10:31:39;2.35;;;0.77;;
8490;SDS011;4282;49.986;7.938;2023-05-10T10:34:09;0.32;;;0.30;;
8490;SDS011;4282;49.986;7.938;2023-05-10T10:36:42;0.85;;;0.47;;
8490;SDS011;4282;49.986;7.938;2023-05-10T10:39:12;1.27;;;0.70;;
8490;SDS011;4282;49.986;7.938;2023-05-10T10:41:51;0.80;;;0.55;;
8490;SDS011;4282;49.986;7.938;2023-05-10T10:44:24;0.68;;;0.40;;
8490;SDS011;4282;49.986;7.938;2023-05-10T10:47:07;0.88;;;0.40;;
8490;SDS011;4282;49.986;7.938;2023-05-10T10:49:44;0.73;;;0.45;;
8490;SDS011;4282;49.986;7.938;2023-05-10T10:52:23;1.85;;;0.50;;
8490;SDS011;4282;49.986;7.938;2023-05-10T10:54:58;1.08;;;0.80;;
8490;SDS011;4282;49.986;7.938;2023-05-10T10:57:34;0.95;;;0.50;;
8490;SDS011;4282;49.986;7.938;2023-05-10T11:00:17;1.27;;;0.30;;
8490;SDS011;4282;49.986;7.938;2023-05-10T11:02:47;0.50;;;0.47;;
8490;SDS011;4282;49.986;7.938;2023-05-10T11:08:13;2.03;;;0.60;;
8490;SDS011;4282;49.986;7.938;2023-05-10T11:10:54;0.82;;;0.40;;
8490;SDS011;4282;49.986;7.938;2023-05-10T11:13:37;3.03;;;0.40;;
8490;SDS011;4282;49.986;7.938;2023-05-10T11:16:10;3.28;;;0.50;;
8490;SDS011;4282;49.986;7.938;2023-05-10T11:18:39;0.60;;;0.50;;
8490;SDS011;4282;49.986;7.938;2023-05-10T11:21:08;1.80;;;0.40;;
8490;SDS011;4282;49.986;7.938;2023-05-10T11:23:48;2.13;;;0.73;;
8490;SDS011;4282;49.986;7.938;2023-05-10T11:26:17;0.65;;;0.40;;
8490;SDS011;4282;49.986;7.938;2023-05-10T11:28:51;0.80;;;0.30;;
8490;SDS011;4282;49.986;7.938;2023-05-10T11:31:20;0.70;;;0.40;;
8490;SDS011;4282;49.986;7.938;2023-05-10T11:33:51;1.65;;;0.68;;
8490;SDS011;4282;49.986;7.938;2023-05-10T11:36:21;0.68;;;0.55;;
8490;SDS011;4282;49.986;7.938;2023-05-10T11:38:52;1.10;;;0.57;;
8490;SDS011;4282;49.986;7.938;2023-05-10T11:41:21;0.80;;;0.40;;
8490;SDS011;4282;49.986;7.938;2023-05-10T11:43:53;1.50;;;0.30;;
8490;SDS011;4282;49.986;7.938;2023-05-10T11:46:23;0.50;;;0.40;;
8490;SDS011;4282;49.986;7.938;2023-05-10T11:48:52;0.47;;;0.30;;
8490;SDS011;4282;49.986;7.938;2023-05-10T11:51:29;0.93;;;0.30;;
8490;SDS011;4282;49.986;7.938;2023-05-10T11:53:57;0.98;;;0.35;;
8490;SDS011;4282;49.986;7.938;2023-05-10T11:56:26;0.73;;;0.40;;
8490;SDS011;4282;49.986;7.938;2023-05-10T11:58:57;0.32;;;0.25;;
8490;SDS011;4282;49.986;7.938;2023-05-10T12:01:27;2.50;;;0.30;;
8490;SDS011;4282;49.986;7.938;2023-05-10T12:03:56;1.47;;;0.60;;
8490;SDS011;4282;49.986;7.938;2023-05-10T12:06:26;0.20;;;0.20;;
8490;SDS011;4282;49.986;7.938;2023-05-10T12:08:56;0.13;;;0.10;;
8490;SDS011;4282;49.986;7.938;2023-05-10T12:11:24;0.25;;;0.20;;
8490;SDS011;4282;49.986;7.938;2023-05-10T12:13:53;1.77;;;0.33;;
8490;SDS011;4282;49.986;7.938;2023-05-10T12:16:25;0.98;;;0.32;;
8490;SDS011;4282;49.986;7.938;2023-05-10T12:18:56;0.88;;;0.30;;
8490;SDS011;4282;49.986;7.938;2023-05-10T12:21:25;0.53;;;0.20;;
8490;SDS011;4282;49.986;7.938;2023-05-10T12:23:58;1.95;;;0.30;;
8490;SDS011;4282;49.986;7.938;2023-05-10T12:26:27;0.30;;;0.30;;
8490;SDS011;4282;49.986;7.938;2023-05-10T12:31:54;0.93;;;0.35;;
8490;SDS011;4282;49.986;7.938;2023-05-10T12:34:24;1.70;;;0.50;;
8490;SDS011;4282;49.986;7.938;2023-05-10T12:36:53;0.70;;;0.50;;
8490;SDS011;4282;49.986;7.938;2023-05-10T12:39:22;1.23;;;0.40;;
8490;SDS011;4282;49.986;7.938;2023-05-10T12:41:50;0.60;;;0.40;;
8490;SDS011;4282;49.986;7.938;2023-05-10T12:44:21;0.40;;;0.30;;
8490;SDS011;4282;49.986;7.938;2023-05-10T12:46:49;0.40;;;0.40;;
8490;SDS011;4282;49.986;7.938;2023-05-10T12:49:18;0.55;;;0.40;;
8490;SDS011;4282;49.986;7.938;2023-05-10T12:51:46;0.30;;;0.30;;
8490;SDS011;4282;49.986;7.938;2023-05-10T12:54:14;1.88;;;0.50;;
8490;SDS011;4282;49.986;7.938;2023-05-10T12:56:43;1.13;;;0.52;;
8490;SDS011;4282;49.986;7.938;2023-05-10T12:59:11;0.30;;;0.30;;
8490;SDS011;4282;49.986;7.938;2023-05-10T13:01:42;1.85;;;0.38;;
8490;SDS011;4282;49.986;7.938;2023-05-10T13:04:10;3.17;;;0.52;;
8490;SDS011;4282;49.986;7.938;2023-05-10T13:06:38;0.57;;;0.50;;
8490;SDS011;4282;49.986;7.938;2023-05-10T13:09:06;0.63;;;0.50;;
8490;SDS011;4282;49.986;7.938;2023-05-10T13:11:35;0.45;;;0.45;;
8490;SDS011;4282;49.986;7.938;2023-05-10T13:14:03;1.42;;;0.52;;
8490;SDS011;4282;49.986;7.938;2023-05-10T13:16:32;1.65;;;0.55;;
8490;SDS011;4282;49.986;7.938;2023-05-10T13:19:02;1.05;;;0.50;;
8490;SDS011;4282;49.986;7.938;2023-05-10T13:21:31;1.83;;;0.60;;
8490;SDS011;4282;49.986;7.938;2023-05-10T13:23:59;0.50;;;0.43;;
8490;SDS011;4282;49.986;7.938;2023-05-10T13:26:27;0.60;;;0.43;;
8490;SDS011;4282;49.986;7.938;2023-05-10T13:28:56;1.17;;;0.57;;
8490;SDS011;4282;49.986;7.938;2023-05-10T13:31:24;1.60;;;0.70;;
8490;SDS011;4282;49.986;7.938;2023-05-10T13:33:52;0.80;;;0.52;;
8490;SDS011;4282;49.986;7.938;2023-05-10T13:36:23;0.75;;;0.70;;
8490;SDS011;4282;49.986;7.938;2023-05-10T13:38:51;0.82;;;0.70;;
8490;SDS011;4282;49.986;7.938;2023-05-10T13:41:20;1.77;;;0.60;;
8490;SDS011;4282;49.986;7.938;2023-05-10T13:43:48;0.88;;;0.60;;
8490;SDS011;4282;49.986;7.938;2023-05-10T13:46:16;1.35;;;0.80;;
8490;SDS011;4282;49.986;7.938;2023-05-10T13:48:44;3.95;;;0.70;;
8490;SDS011;4282;49.986;7.938;2023-05-10T13:51:13;0.68;;;0.63;;
8490;SDS011;4282;49.986;7.938;2023-05-10T13:53:43;0.60;;;0.60;;
8490;SDS011;4282;49.986;7.938;2023-05-10T13:56:12;0.73;;;0.63;;
8490;SDS011;4282;49.986;7.938;2023-05-10T13:58:40;0.47;;;0.45;;
8490;SDS011;4282;49.986;7.938;2023-05-10T14:01:09;1.05;;;0.70;;
8490;SDS011;4282;49.986;7.938;2023-05-10T14:03:37;1.05;;;0.70;;
8490;SDS011;4282;49.986;7.938;2023-05-10T14:06:06;1.90;;;1.75;;
8490;SDS011;4282;49.986;7.938;2023-05-10T14:08:35;1.48;;;0.80;;
8490;SDS011;4282;49.986;7.938;2023-05-10T14:11:06;2.25;;;0.60;;
8490;SDS011;4282;49.986;7.938;2023-05-10T14:13:34;1.25;;;0.63;;
8490;SDS011;4282;49.986;7.938;2023-05-10T14:16:02;1.45;;;0.68;;
8490;SDS011;4282;49.986;7.938;2023-05-10T14:18:31;2.25;;;0.70;;
8490;SDS011;4282;49.986;7.938;2023-05-10T14:21:00;2.72;;;0.90;;
8490;SDS011;4282;49.986;7.938;2023-05-10T14:23:29;2.30;;;0.70;;
8490;SDS011;4282;49.986;7.938;2023-05-10T14:25:57;0.68;;;0.50;;
8490;SDS011;4282;49.986;7.938;2023-05-10T14:28:29;2.08;;;0.90;;
8490;SDS011;4282;49.986;7.938;2023-05-10T14:30:57;2.58;;;0.90;;
8490;SDS011;4282;49.986;7.938;2023-05-10T14:33:26;2.30;;;0.75;;
8490;SDS011;4282;49.986;7.938;2023-05-10T14:35:54;0.68;;;0.65;;
8490;SDS011;4282;49.986;7.938;2023-05-10T14:38:22;1.25;;;0.73;;
8490;SDS011;4282;49.986;7.938;2023-05-10T14:40:51;4.13;;;0.73;;
8490;SDS011;4282;49.986;7.938;2023-05-10T14:43:19;2.10;;;0.93;;
8490;SDS011;4282;49.986;7.938;2023-05-10T14:45:50;2.03;;;0.82;;
8490;SDS011;4282;49.986;7.938;2023-05-10T14:48:18;2.80;;;0.90;;
8490;SDS011;4282;49.986;7.938;2023-05-10T14:50:47;2.20;;;0.90;;
8490;SDS011;4282;49.986;7.938;2023-05-10T14:53:15;3.25;;;1.13;;
8490;SDS011;4282;49.986;7.938;2023-05-10T14:55:43;1.25;;;0.90;;
8490;SDS011;4282;49.986;7.938;2023-05-10T14:58:12;1.50;;;1.00;;
8490;SDS011;4282;49.986;7.938;2023-05-10T15:00:40;1.85;;;0.82;;
8490;SDS011;4282;49.986;7.938;2023-05-10T15:03:11;1.63;;;0.70;;
8490;SDS011;4282;49.986;7.938;2023-05-10T15:05:39;1.63;;;0.77;;
8490;SDS011;4282;49.986;7.938;2023-05-10T15:08:07;1.23;;;0.90;;
8490;SDS011;4282;49.986;7.938;2023-05-10T15:10:37;1.85;;;0.65;;
8490;SDS011;4282;49.986;7.938;2023-05-10T15:13:05;2.47;;;0.73;;
8490;SDS011;4282;49.986;7.938;2023-05-10T15:15:34;2.45;;;0.80;;
8490;SDS011;4282;49.986;7.938;2023-05-10T15:18:02;1.33;;;0.82;;
8490;SDS011;4282;49.986;7.938;2023-05-10T15:20:33;2.50;;;0.82;;
8490;SDS011;4282;49.986;7.938;2023-05-10T15:23:01;2.47;;;0.80;;
8490;SDS011;4282;49.986;7.938;2023-05-10T15:25:30;2.58;;;1.00;;
8490;SDS011;4282;49.986;7.938;2023-05-10T15:27:59;1.52;;;0.70;;
8490;SDS011;4282;49.986;7.938;2023-05-10T15:30:28;1.65;;;0.80;;
8490;SDS011;4282;49.986;7.938;2023-05-10T15:32:56;2.38;;;1.10;;
8490;SDS011;4282;49.986;7.938;2023-05-10T15:35:25;1.73;;;0.60;;
8490;SDS011;4282;49.986;7.938;2023-05-10T15:37:56;1.23;;;0.68;;